createdAt,value
2019-03-31T00:01:07.976Z,100646.67
2019-03-31T00:03:32.862Z,100644.52
2019-03-31T00:06:03.277Z,100638.92
2019-03-31T00:08:33.515Z,100637.20
2019-03-31T00:11:03.815Z,100638.91
2019-03-31T00:13:34.530Z,100632.87
2019-03-31T00:16:05.639Z,100632.01
2019-03-31T00:18:35.969Z,100623.37
2019-03-31T00:21:06.559Z,100625.96
2019-03-31T00:23:38.481Z,100622.51
2019-03-31T00:26:08.872Z,100619.94
2019-03-31T00:28:39.112Z,100617.34
2019-03-31T00:31:21.570Z,100616.05
2019-03-31T00:33:41.604Z,100612.17
2019-03-31T00:36:12.431Z,100609.58
2019-03-31T00:38:43.212Z,100606.56
2019-03-31T00:41:13.443Z,100603.55
2019-03-31T00:43:43.683Z,100609.16
2019-03-31T00:46:14.001Z,100604.84
2019-03-31T00:48:44.340Z,100603.97
2019-03-31T00:51:14.638Z,100606.55
2019-03-31T00:53:44.837Z,100598.36
2019-03-31T00:56:15.130Z,100598.36
2019-03-31T00:58:45.719Z,100596.20
2019-03-31T01:01:17.675Z,100593.19
2019-03-31T01:03:49.593Z,100589.73
2019-03-31T01:06:21.266Z,100594.03
2019-03-31T01:08:52.924Z,100586.30
2019-03-31T01:11:24.404Z,100591.45
2019-03-31T01:13:54.967Z,100587.58
2019-03-31T01:16:27.299Z,100584.56
2019-03-31T01:18:57.952Z,100581.98
2019-03-31T01:21:28.282Z,100574.23
2019-03-31T01:23:58.532Z,100573.36
2019-03-31T01:26:30.166Z,100578.10
2019-03-31T01:29:00.901Z,100568.63
2019-03-31T01:31:32.132Z,100569.48
2019-03-31T01:34:02.952Z,100565.59
2019-03-31T01:36:33.532Z,100564.73
2019-03-31T01:39:05.344Z,100569.03
2019-03-31T01:41:37.135Z,100563.00
2019-03-31T01:44:07.418Z,100561.70
2019-03-31T01:46:37.709Z,100554.81
2019-03-31T01:49:08.044Z,100546.20
2019-03-31T01:51:38.268Z,100544.06
2019-03-31T01:54:08.588Z,100550.09
2019-03-31T01:56:38.885Z,100541.47
2019-03-31T01:59:09.147Z,100538.45
2019-03-31T02:01:40.784Z,100540.59
2019-03-31T02:04:11.305Z,100538.00
2019-03-31T02:06:41.944Z,100539.28
2019-03-31T02:09:12.722Z,100538.84
2019-03-31T02:11:43.139Z,100541.00
2019-03-31T02:14:13.459Z,100533.23
2019-03-31T02:16:45.466Z,100542.27
2019-03-31T02:19:16.796Z,100537.10
2019-03-31T02:21:47.382Z,100538.39
2019-03-31T02:24:21.391Z,100534.95
2019-03-31T02:26:51.717Z,100534.53
2019-03-31T02:29:21.972Z,100534.09
2019-03-31T02:31:52.209Z,100540.53
2019-03-31T02:34:22.452Z,100531.52
2019-03-31T02:36:52.769Z,100531.50
2019-03-31T02:39:23.025Z,100531.06
2019-03-31T02:41:53.252Z,100531.92
2019-03-31T02:44:23.477Z,100526.75
2019-03-31T02:46:54.104Z,100536.64
2019-03-31T02:49:25.301Z,100525.45
2019-03-31T02:51:55.623Z,100526.72
2019-03-31T02:54:27.183Z,100521.13
2019-03-31T02:56:58.492Z,100515.97
2019-03-31T02:59:32.437Z,100522.41
2019-03-31T03:02:04.457Z,100518.10
2019-03-31T03:04:37.018Z,100509.48
2019-03-31T03:07:10.315Z,100513.36
2019-03-31T03:09:44.249Z,100508.19
2019-03-31T03:12:16.097Z,100505.16
2019-03-31T03:14:49.360Z,100512.47
2019-03-31T03:17:19.614Z,100509.01
2019-03-31T03:19:49.849Z,100511.58
2019-03-31T03:22:20.112Z,100509.40
2019-03-31T03:24:51.374Z,100506.41
2019-03-31T03:27:21.983Z,100506.82
2019-03-31T03:29:52.719Z,100505.08
2019-03-31T03:32:23.198Z,100506.78
2019-03-31T03:34:53.694Z,100506.77
2019-03-31T03:37:25.490Z,100507.61
2019-03-31T03:39:56.212Z,100508.47
2019-03-31T03:42:26.858Z,100507.17
2019-03-31T03:44:57.151Z,100504.17
2019-03-31T03:47:27.771Z,100505.02
2019-03-31T03:49:58.127Z,100509.73
2019-03-31T03:52:28.332Z,100504.11
2019-03-31T03:54:58.575Z,100508.82
2019-03-31T03:57:29.165Z,100503.22
2019-03-31T03:59:59.489Z,100504.94
2019-03-31T04:02:29.752Z,100507.94
2019-03-31T04:05:01.490Z,100509.22
2019-03-31T04:07:31.820Z,100507.06
2019-03-31T04:10:02.077Z,100507.91
2019-03-31T04:12:33.724Z,100505.77
2019-03-31T04:15:04.467Z,100510.08
2019-03-31T04:17:36.181Z,100513.55
2019-03-31T04:20:07.416Z,100505.84
2019-03-31T04:22:39.277Z,100501.55
2019-03-31T04:25:11.257Z,100499.81
2019-03-31T04:27:41.946Z,100503.27
2019-03-31T04:30:12.629Z,100505.02
2019-03-31T04:32:42.939Z,100504.17
2019-03-31T04:35:13.210Z,100501.63
2019-03-31T04:37:43.783Z,100500.34
2019-03-31T04:40:14.492Z,100499.94
2019-03-31T04:42:44.779Z,100505.98
2019-03-31T04:45:15.091Z,100510.73
2019-03-31T04:47:47.253Z,100512.05
2019-03-31T04:50:17.561Z,100506.51
2019-03-31T04:52:47.806Z,100504.38
2019-03-31T04:55:18.097Z,100509.55
2019-03-31T04:57:48.432Z,100503.12
2019-03-31T05:00:18.761Z,100501.86
2019-03-31T05:02:49.021Z,100501.45
2019-03-31T05:05:19.282Z,100499.29
2019-03-31T05:07:49.870Z,100501.45
2019-03-31T05:10:20.175Z,100503.62
2019-03-31T05:12:50.401Z,100501.86
2019-03-31T05:15:20.708Z,100502.70
2019-03-31T05:17:50.976Z,100506.89
2019-03-31T05:20:21.615Z,100510.16
2019-03-31T05:22:52.915Z,100503.39
2019-03-31T05:25:24.007Z,100494.87
2019-03-31T05:27:56.286Z,100490.15
2019-03-31T05:30:26.957Z,100486.23
2019-03-31T05:32:57.230Z,100474.88
2019-03-31T05:35:27.845Z,100482.46
2019-03-31T05:37:58.157Z,100488.50
2019-03-31T05:40:30.745Z,100480.14
2019-03-31T05:43:00.803Z,100504.23
2019-03-31T05:45:31.511Z,100509.36
2019-03-31T05:48:01.908Z,100511.70
2019-03-31T05:50:32.500Z,100499.92
2019-03-31T05:53:02.870Z,100509.23
2019-03-31T05:55:33.079Z,100508.04
2019-03-31T05:58:03.827Z,100520.72
2019-03-31T06:00:37.211Z,100519.80
2019-03-31T06:03:07.820Z,100520.50
2019-03-31T06:05:38.655Z,100528.74
2019-03-31T06:08:10.396Z,100523.25
2019-03-31T06:10:41.012Z,100531.09
2019-03-31T06:13:11.378Z,100541.38
2019-03-31T06:15:41.617Z,100541.96
2019-03-31T06:18:11.882Z,100544.52
2019-03-31T06:20:42.622Z,100551.45
2019-03-31T06:23:12.927Z,100552.31
2019-03-31T06:25:43.225Z,100543.84
2019-03-31T06:28:14.986Z,100545.43
2019-03-31T06:30:45.705Z,100558.09
2019-03-31T06:33:15.996Z,100529.83
2019-03-31T06:35:46.667Z,100541.85
2019-03-31T06:38:18.991Z,100533.86
2019-03-31T06:40:56.796Z,100534.79
2019-03-31T06:43:27.451Z,100551.40
2019-03-31T06:45:59.036Z,100546.14
2019-03-31T06:48:29.640Z,100558.17
2019-03-31T06:51:01.001Z,100554.52
2019-03-31T06:53:31.609Z,100545.00
2019-03-31T06:56:02.276Z,100538.07
2019-03-31T06:58:32.975Z,100538.70
2019-03-31T07:01:03.629Z,100542.92
2019-03-31T07:03:33.930Z,100549.70
2019-03-31T07:06:04.152Z,100556.68
2019-03-31T07:08:34.819Z,100561.50
2019-03-31T07:11:05.460Z,100556.84
2019-03-31T07:13:36.039Z,100553.16
2019-03-31T07:16:06.348Z,100563.02
2019-03-31T07:18:36.598Z,100553.36
2019-03-31T07:21:06.838Z,100564.73
2019-03-31T07:23:37.494Z,100552.99
2019-03-31T07:26:08.110Z,100557.66
2019-03-31T07:28:38.714Z,100570.88
2019-03-31T07:31:09.359Z,100583.38
2019-03-31T07:33:39.668Z,100593.45
2019-03-31T07:36:09.896Z,100573.10
2019-03-31T07:38:40.516Z,100580.68
2019-03-31T07:41:12.916Z,100580.33
2019-03-31T07:43:43.095Z,100578.48
2019-03-31T07:46:13.823Z,100564.83
2019-03-31T07:48:45.783Z,100580.41
2019-03-31T07:51:18.130Z,100568.66
2019-03-31T07:53:48.742Z,100565.16
2019-03-31T07:56:19.061Z,100571.17
2019-03-31T07:58:50.412Z,100557.66
2019-03-31T08:01:22.065Z,100556.17
2019-03-31T08:03:52.365Z,100555.77
2019-03-31T08:06:22.946Z,100542.61
2019-03-31T08:08:53.628Z,100549.72
2019-03-31T08:11:24.313Z,100548.89
2019-03-31T08:13:55.954Z,100541.30
2019-03-31T08:16:26.150Z,100541.93
2019-03-31T08:18:57.814Z,100519.28
2019-03-31T08:21:28.482Z,100550.94
2019-03-31T08:23:58.785Z,100550.64
2019-03-31T08:26:29.073Z,100541.27
2019-03-31T08:28:59.763Z,100548.53
2019-03-31T08:31:30.527Z,100547.84
2019-03-31T08:34:00.858Z,100560.80
2019-03-31T08:36:31.089Z,100540.69
2019-03-31T08:39:01.382Z,100520.45
2019-03-31T08:41:33.484Z,100535.67
2019-03-31T08:44:05.808Z,100535.72
2019-03-31T08:46:36.817Z,100544.23
2019-03-31T08:49:08.758Z,100537.77
2019-03-31T08:51:39.468Z,100519.38
2019-03-31T08:54:10.149Z,100537.12
2019-03-31T08:56:40.438Z,100535.95
2019-03-31T08:59:11.231Z,100523.36
2019-03-31T09:01:42.543Z,100526.73
2019-03-31T09:04:12.867Z,100498.03
2019-03-31T09:06:43.151Z,100492.61
2019-03-31T09:09:13.369Z,100507.38
2019-03-31T09:11:43.705Z,100513.31
2019-03-31T09:14:14.418Z,100534.53
2019-03-31T09:16:45.183Z,100514.23
2019-03-31T09:19:15.489Z,100529.02
2019-03-31T09:21:46.087Z,100486.02
2019-03-31T09:24:16.444Z,100484.89
2019-03-31T09:26:48.720Z,100506.88
2019-03-31T09:29:19.467Z,100495.73
2019-03-31T09:31:50.998Z,100485.73
2019-03-31T09:34:21.363Z,100486.09
2019-03-31T09:36:51.643Z,100494.29
2019-03-31T09:39:22.242Z,100495.78
2019-03-31T09:41:52.911Z,100493.68
2019-03-31T09:44:23.562Z,100478.86
2019-03-31T09:46:54.255Z,100497.05
2019-03-31T09:49:24.927Z,100513.73
2019-03-31T09:51:55.217Z,100515.41
2019-03-31T09:54:25.459Z,100508.37
2019-03-31T09:56:55.760Z,100510.88
2019-03-31T09:59:26.011Z,100495.45
2019-03-31T10:01:56.604Z,100484.72
2019-03-31T10:04:27.322Z,100493.44
2019-03-31T10:06:58.170Z,100492.83
2019-03-31T10:09:28.533Z,100491.25
2019-03-31T10:11:59.619Z,100490.52
2019-03-31T10:14:29.939Z,100493.62
2019-03-31T10:17:00.179Z,100486.02
2019-03-31T10:19:30.457Z,100491.56
2019-03-31T10:22:01.884Z,100493.34
2019-03-31T10:24:32.510Z,100500.37
2019-03-31T10:27:03.529Z,100484.58
2019-03-31T10:29:35.499Z,100479.16
2019-03-31T10:32:06.887Z,100483.58
2019-03-31T10:34:38.836Z,100484.70
2019-03-31T10:37:09.155Z,100482.16
2019-03-31T10:39:39.745Z,100476.81
2019-03-31T10:42:10.069Z,100476.03
2019-03-31T10:44:40.294Z,100471.92
2019-03-31T10:47:12.215Z,100468.33
2019-03-31T10:49:42.739Z,100482.36
2019-03-31T10:52:13.056Z,100473.20
2019-03-31T10:54:43.642Z,100471.83
2019-03-31T10:57:14.430Z,100474.66
2019-03-31T10:59:46.260Z,100482.41
2019-03-31T11:02:16.856Z,100475.84
2019-03-31T11:04:47.312Z,100477.55
2019-03-31T11:07:17.539Z,100482.53
2019-03-31T11:09:47.984Z,100486.88
2019-03-31T11:12:18.256Z,100466.88
2019-03-31T11:14:48.913Z,100470.66
2019-03-31T11:17:19.527Z,100468.97
2019-03-31T11:19:50.090Z,100473.45
2019-03-31T11:22:35.596Z,100477.33
2019-03-31T11:25:20.297Z,100473.16
2019-03-31T11:27:43.696Z,100479.70
2019-03-31T11:30:13.658Z,100482.88
2019-03-31T11:32:43.965Z,100467.40
2019-03-31T11:35:14.361Z,100473.45
2019-03-31T11:37:44.631Z,100471.63
2019-03-31T11:40:15.239Z,100478.02
2019-03-31T11:42:45.487Z,100462.63
2019-03-31T11:45:16.676Z,100470.77
2019-03-31T11:47:46.898Z,100471.38
2019-03-31T11:50:17.605Z,100472.13
2019-03-31T11:52:47.872Z,100476.84
2019-03-31T11:55:18.122Z,100474.06
2019-03-31T11:57:48.377Z,100479.98
2019-03-31T12:00:24.829Z,100484.36
2019-03-31T12:02:55.208Z,100467.21
2019-03-31T12:05:25.830Z,100484.84
2019-03-31T12:07:56.212Z,100486.34
2019-03-31T12:10:26.446Z,100489.17
2019-03-31T12:12:56.701Z,100483.38
2019-03-31T12:15:26.941Z,100489.80
2019-03-31T12:17:57.178Z,100487.88
2019-03-31T12:20:27.790Z,100490.63
2019-03-31T12:22:58.218Z,100485.84
2019-03-31T12:25:28.457Z,100478.45
2019-03-31T12:27:58.769Z,100480.55
2019-03-31T12:30:29.146Z,100485.25
2019-03-31T12:33:00.912Z,100479.88
2019-03-31T12:35:31.201Z,100480.14
2019-03-31T12:38:01.907Z,100471.27
2019-03-31T12:40:34.626Z,100473.59
2019-03-31T12:43:05.463Z,100481.91
2019-03-31T12:45:35.830Z,100481.69
2019-03-31T12:48:06.563Z,100481.39
2019-03-31T12:50:36.898Z,100479.69
2019-03-31T12:53:07.215Z,100473.11
2019-03-31T12:55:37.512Z,100483.34
2019-03-31T12:58:07.764Z,100470.69
2019-03-31T13:00:37.987Z,100472.59
2019-03-31T13:03:09.201Z,100486.48
2019-03-31T13:05:39.457Z,100481.95
2019-03-31T13:08:10.058Z,100479.12
2019-03-31T13:10:41.867Z,100480.19
2019-03-31T13:13:12.618Z,100477.94
2019-03-31T13:15:42.990Z,100480.69
2019-03-31T13:18:15.119Z,100470.66
2019-03-31T13:20:45.499Z,100470.27
2019-03-31T13:23:16.106Z,100475.90
2019-03-31T13:25:46.422Z,100485.22
2019-03-31T13:28:16.657Z,100485.05
2019-03-31T13:30:46.911Z,100484.05
2019-03-31T13:33:17.138Z,100489.95
2019-03-31T13:35:47.803Z,100488.80
2019-03-31T13:38:18.517Z,100487.17
2019-03-31T13:40:50.595Z,100496.23
2019-03-31T13:43:21.251Z,100493.55
2019-03-31T13:45:51.504Z,100500.12
2019-03-31T13:48:21.728Z,100501.36
2019-03-31T13:50:51.978Z,100510.10
2019-03-31T13:53:22.232Z,100499.09
2019-03-31T13:55:52.480Z,100502.39
2019-03-31T13:58:23.545Z,100497.64
2019-03-31T14:00:57.070Z,100497.48
2019-03-31T14:03:26.443Z,100506.72
2019-03-31T14:05:56.706Z,100513.94
2019-03-31T14:08:26.950Z,100495.59
2019-03-31T14:10:57.193Z,100505.70
2019-03-31T14:13:27.454Z,100496.72
2019-03-31T14:15:57.854Z,100499.53
2019-03-31T14:18:28.169Z,100511.62
2019-03-31T14:20:58.742Z,100512.19
2019-03-31T14:23:31.733Z,100511.22
2019-03-31T14:26:02.040Z,100505.82
2019-03-31T14:28:32.673Z,100514.48
2019-03-31T14:31:03.330Z,100513.12
2019-03-31T14:33:34.130Z,100520.69
2019-03-31T14:36:04.491Z,100515.88
2019-03-31T14:38:40.372Z,100524.19
2019-03-31T14:41:06.768Z,100529.56
2019-03-31T14:43:36.989Z,100529.27
2019-03-31T14:46:07.619Z,100541.75
2019-03-31T14:48:38.305Z,100539.73
2019-03-31T14:51:08.699Z,100543.46
2019-03-31T14:53:39.312Z,100541.67
2019-03-31T14:56:09.639Z,100550.75
2019-03-31T14:58:39.963Z,100558.20
2019-03-31T15:01:10.301Z,100540.86
2019-03-31T15:03:40.890Z,100553.62
2019-03-31T15:06:11.568Z,100569.93
2019-03-31T15:08:53.767Z,100558.68
2019-03-31T15:11:13.819Z,100564.70
2019-03-31T15:13:44.071Z,100561.73
2019-03-31T15:16:14.299Z,100570.70
2019-03-31T15:18:44.607Z,100564.37
2019-03-31T15:21:14.825Z,100588.94
2019-03-31T15:23:45.095Z,100585.03
2019-03-31T15:26:15.722Z,100587.59
2019-03-31T15:28:46.017Z,100585.74
2019-03-31T15:31:16.635Z,100592.92
2019-03-31T15:33:47.310Z,100591.19
2019-03-31T15:36:18.021Z,100593.30
2019-03-31T15:38:48.357Z,100596.42
2019-03-31T15:41:21.442Z,100602.01
2019-03-31T15:43:50.682Z,100599.59
2019-03-31T15:46:24.389Z,100597.09
2019-03-31T15:48:52.834Z,100606.41
2019-03-31T15:51:23.426Z,100610.56
2019-03-31T15:53:54.870Z,100613.42
2019-03-31T15:56:25.233Z,100616.25
2019-03-31T15:58:55.623Z,100617.06
2019-03-31T16:01:26.264Z,100623.42
2019-03-31T16:03:56.577Z,100630.42
2019-03-31T16:06:26.930Z,100632.17
2019-03-31T16:08:57.194Z,100629.61
2019-03-31T16:11:27.413Z,100631.24
2019-03-31T16:13:57.662Z,100640.34
2019-03-31T16:16:30.613Z,100644.77
2019-03-31T16:18:59.923Z,100646.14
2019-03-31T16:21:30.327Z,100644.08
2019-03-31T16:24:01.847Z,100650.80
2019-03-31T16:26:32.064Z,100652.45
2019-03-31T16:29:02.677Z,100651.89
2019-03-31T16:31:33.059Z,100664.43
2019-03-31T16:34:03.302Z,100667.44
2019-03-31T16:36:33.525Z,100665.55
2019-03-31T16:39:05.629Z,100671.52
2019-03-31T16:41:36.146Z,100674.68
2019-03-31T16:44:06.389Z,100668.81
2019-03-31T16:46:39.801Z,100676.86
2019-03-31T16:49:08.970Z,100677.98
2019-03-31T16:51:39.865Z,100682.75
2019-03-31T16:54:10.088Z,100680.27
2019-03-31T16:56:40.322Z,100685.48
2019-03-31T16:59:10.597Z,100685.00
2019-03-31T17:01:41.187Z,100687.00
2019-03-31T17:04:11.511Z,100704.74
2019-03-31T17:06:41.768Z,100702.81
2019-03-31T17:09:11.995Z,100703.15
2019-03-31T17:11:43.024Z,100710.63
2019-03-31T17:14:13.339Z,100708.13
2019-03-31T17:16:43.561Z,100711.87
2019-03-31T17:19:13.781Z,100713.78
2019-03-31T17:21:44.058Z,100715.87
2019-03-31T17:24:14.637Z,100720.91
2019-03-31T17:26:44.928Z,100726.49
2019-03-31T17:29:15.172Z,100729.45
2019-03-31T17:31:47.293Z,100729.69
2019-03-31T17:34:17.985Z,100733.87
2019-03-31T17:36:48.271Z,100739.32
2019-03-31T17:39:18.893Z,100752.16
2019-03-31T17:41:49.530Z,100747.17
2019-03-31T17:44:19.829Z,100749.08
2019-03-31T17:46:50.065Z,100759.69
2019-03-31T17:49:21.047Z,100765.48
2019-03-31T17:51:51.702Z,100773.89
2019-03-31T17:54:21.995Z,100778.77
2019-03-31T17:56:52.274Z,100780.23
2019-03-31T17:59:22.850Z,100777.23
2019-03-31T18:01:53.128Z,100784.36
2019-03-31T18:04:23.364Z,100788.31
2019-03-31T18:06:57.130Z,100793.69
2019-03-31T18:09:27.785Z,100796.84
2019-03-31T18:11:58.063Z,100808.57
2019-03-31T18:14:28.306Z,100806.97
2019-03-31T18:16:58.529Z,100810.05
2019-03-31T18:19:29.312Z,100823.56
2019-03-31T18:22:00.007Z,100831.70
2019-03-31T18:24:30.286Z,100836.03
2019-03-31T18:27:00.554Z,100841.27
2019-03-31T18:29:32.086Z,100850.37
2019-03-31T18:32:03.290Z,100854.22
2019-03-31T18:34:33.574Z,100855.31
2019-03-31T18:37:04.156Z,100849.59
2019-03-31T18:39:34.444Z,100862.31
2019-03-31T18:42:04.748Z,100868.77
2019-03-31T18:44:35.014Z,100867.09
2019-03-31T18:47:05.386Z,100882.84
2019-03-31T18:49:35.419Z,100883.75
2019-03-31T18:52:06.703Z,100883.47
2019-03-31T18:54:38.579Z,100891.70
2019-03-31T18:57:10.800Z,100890.53
2019-03-31T18:59:54.793Z,100892.73
2019-03-31T19:02:29.688Z,100894.64
2019-03-31T19:05:04.350Z,100890.42
2019-03-31T19:07:52.644Z,100897.97
2019-03-31T19:10:27.013Z,100902.02
2019-03-31T19:13:05.018Z,100903.47
2019-03-31T19:15:53.524Z,100910.94
2019-03-31T19:18:25.798Z,100918.77
2019-03-31T19:21:11.352Z,100927.06
2019-03-31T19:23:59.879Z,100917.61
2019-03-31T19:26:48.776Z,100923.77
2019-03-31T19:29:18.704Z,100926.80
2019-03-31T19:31:53.270Z,100938.20
2019-03-31T19:34:34.271Z,100933.49
2019-03-31T19:37:06.575Z,100936.57
2019-03-31T19:39:42.491Z,100945.69
2019-03-31T19:42:12.881Z,100948.66
2019-03-31T19:44:44.667Z,100945.69
2019-03-31T19:47:16.971Z,100948.34
2019-03-31T19:49:51.900Z,100958.80
2019-03-31T19:52:40.568Z,100958.34
2019-03-31T19:55:18.273Z,100963.64
2019-03-31T19:58:05.396Z,100986.05
2019-03-31T20:00:49.611Z,100988.58
2019-03-31T20:03:40.121Z,100993.27
2019-03-31T20:06:16.350Z,100998.09
2019-03-31T20:08:51.498Z,101014.23
2019-03-31T20:11:26.316Z,101009.12
2019-03-31T20:14:01.317Z,101022.66
2019-03-31T20:16:39.824Z,101021.89
2019-03-31T20:19:27.401Z,101018.08
2019-03-31T20:22:10.913Z,101029.41
2019-03-31T20:24:45.837Z,101035.49
2019-03-31T20:27:18.117Z,101043.31
2019-03-31T20:30:04.925Z,101045.11
2019-03-31T20:32:43.088Z,101053.35
2019-03-31T20:35:15.378Z,101057.70
2019-03-31T20:38:04.104Z,101060.73
2019-03-31T20:40:36.089Z,101063.33
2019-03-31T20:43:15.142Z,101071.56
2019-03-31T20:45:45.525Z,101078.91
2019-03-31T20:48:16.135Z,101081.06
2019-03-31T20:50:47.729Z,101083.66
2019-03-31T20:53:17.948Z,101084.52
2019-03-31T20:55:48.239Z,101086.68
2019-03-31T20:58:18.570Z,101091.40
2019-03-31T21:00:49.021Z,101100.00
2019-03-31T21:03:19.614Z,101101.30
2019-03-31T21:05:49.902Z,101109.05
2019-03-31T21:08:20.162Z,101114.65
2019-03-31T21:10:50.723Z,101120.22
2019-03-31T21:13:21.750Z,101127.61
2019-03-31T21:15:52.335Z,101124.96
2019-03-31T21:18:23.017Z,101134.43
2019-03-31T21:20:53.645Z,101133.50
2019-03-31T21:23:24.055Z,101137.77
2019-03-31T21:25:54.663Z,101144.67
2019-03-31T21:28:24.970Z,101132.55
2019-03-31T21:30:55.158Z,101136.32
2019-03-31T21:33:25.832Z,101145.36
2019-03-31T21:35:56.134Z,101152.23
2019-03-31T21:38:26.748Z,101150.55
2019-03-31T21:40:57.427Z,101155.59
2019-03-31T21:43:27.801Z,101158.09
2019-03-31T21:45:58.015Z,101155.47
2019-03-31T21:48:28.289Z,101161.05
2019-03-31T21:50:58.522Z,101158.73
2019-03-31T21:53:28.747Z,101159.91
2019-03-31T21:55:59.092Z,101160.22
2019-03-31T21:58:29.356Z,101166.09
2019-03-31T22:01:00.535Z,101169.42
2019-03-31T22:03:31.858Z,101172.37
2019-03-31T22:06:02.110Z,101176.13
2019-03-31T22:08:32.363Z,101179.44
2019-03-31T22:11:02.962Z,101181.05
2019-03-31T22:13:33.261Z,101181.80
2019-03-31T22:16:03.566Z,101183.41
2019-03-31T22:18:33.862Z,101178.97
2019-03-31T22:21:04.085Z,101186.61
2019-03-31T22:23:34.768Z,101190.78
2019-03-31T22:26:05.134Z,101189.39
2019-03-31T22:28:37.410Z,101188.88
2019-03-31T22:31:08.026Z,101189.60
2019-03-31T22:33:38.274Z,101186.47
2019-03-31T22:36:25.168Z,101191.50
2019-03-31T22:38:55.457Z,101188.38
2019-03-31T22:41:25.706Z,101193.42
2019-03-31T22:43:55.932Z,101196.80
2019-03-31T22:46:26.180Z,101204.05
2019-03-31T22:48:56.740Z,101205.34
2019-03-31T22:51:27.372Z,101206.19
2019-03-31T22:53:57.721Z,101202.59
2019-03-31T22:56:27.923Z,101200.36
2019-03-31T22:58:58.193Z,101202.87
2019-03-31T23:01:28.743Z,101204.08
2019-03-31T23:03:59.057Z,101212.63
2019-03-31T23:06:29.297Z,101207.41
2019-03-31T23:08:59.543Z,101208.64
2019-03-31T23:11:30.112Z,101215.38
2019-03-31T23:14:00.455Z,101211.78
2019-03-31T23:16:30.684Z,101217.77
2019-03-31T23:19:00.893Z,101224.09
2019-03-31T23:21:31.476Z,101225.77
2019-03-31T23:24:01.769Z,101223.06
2019-03-31T23:26:32.424Z,101229.05
2019-03-31T23:29:02.703Z,101223.80
2019-03-31T23:31:33.302Z,101228.41
2019-03-31T23:34:03.662Z,101230.53
2019-03-31T23:36:34.315Z,101240.00
2019-03-31T23:39:07.935Z,101237.81
2019-03-31T23:41:38.229Z,101240.31
2019-03-31T23:44:08.491Z,101246.27
2019-03-31T23:46:38.760Z,101249.27
2019-03-31T23:49:09.022Z,101248.84
2019-03-31T23:51:39.287Z,101253.58
2019-03-31T23:54:09.548Z,101257.96
2019-03-31T23:56:39.782Z,101255.31
2019-03-31T23:59:10.037Z,101265.95
